sensor_id;sensor_type;location;lat;lon;timestamp;pressure;altitude;pressure_sealevel;temperature;humidity
39051;BME280;24805;55.852;37.644;2023-03-31T00:03:46;98713.25;;;2.55;59.03
39051;BME280;24805;55.852;37.644;2023-03-31T00:08:49;98729.44;;;2.68;59.42
39051;BME280;24805;55.852;37.644;2023-03-31T00:13:53;98735.78;;;2.66;59.45
39051;BME280;24805;55.852;37.644;2023-03-31T00:18:55;98725.91;;;2.60;59.77
39051;BME280;24805;55.852;37.644;2023-03-31T00:24:00;98730.31;;;2.59;59.34
39051;BME280;24805;55.852;37.644;2023-03-31T00:29:04;98727.84;;;2.58;59.53
39051;BME280;24805;55.852;37.644;2023-03-31T00:34:07;98734.63;;;2.51;60.00
39051;BME280;24805;55.852;37.644;2023-03-31T00:39:09;98728.97;;;2.55;59.52
39051;BME280;24805;55.852;37.644;2023-03-31T00:44:22;98727.78;;;2.67;59.38
39051;BME280;24805;55.852;37.644;2023-03-31T00:49:31;98719.03;;;2.59;59.37
39051;BME280;24805;55.852;37.644;2023-03-31T00:54:35;98708.59;;;2.49;60.07
39051;BME280;24805;55.852;37.644;2023-03-31T00:59:42;98718.22;;;2.49;59.97
39051;BME280;24805;55.852;37.644;2023-03-31T01:04:51;98720.03;;;2.48;60.09
39051;BME280;24805;55.852;37.644;2023-03-31T01:10:00;98719.06;;;2.49;60.09
39051;BME280;24805;55.852;37.644;2023-03-31T01:15:04;98705.84;;;2.41;59.99
39051;BME280;24805;55.852;37.644;2023-03-31T01:20:20;98697.81;;;2.52;59.79
39051;BME280;24805;55.852;37.644;2023-03-31T01:36:23;98689.56;;;2.47;60.48
39051;BME280;24805;55.852;37.644;2023-03-31T01:41:52;98673.94;;;2.37;60.28
39051;BME280;24805;55.852;37.644;2023-03-31T01:46:59;98671.75;;;2.33;60.55
39051;BME280;24805;55.852;37.644;2023-03-31T01:52:07;98676.56;;;2.37;61.00
39051;BME280;24805;55.852;37.644;2023-03-31T01:57:39;98686.28;;;2.45;60.59
39051;BME280;24805;55.852;37.644;2023-03-31T02:03:04;98672.59;;;2.51;60.93
39051;BME280;24805;55.852;37.644;2023-03-31T02:08:15;98660.88;;;2.28;60.58
39051;BME280;24805;55.852;37.644;2023-03-31T02:13:20;98663.97;;;2.41;60.30
39051;BME280;24805;55.852;37.644;2023-03-31T02:18:27;98664.28;;;2.38;60.30
39051;BME280;24805;55.852;37.644;2023-03-31T02:23:31;98661.72;;;2.28;60.15
39051;BME280;24805;55.852;37.644;2023-03-31T02:28:34;98661.03;;;2.26;60.12
39051;BME280;24805;55.852;37.644;2023-03-31T02:33:38;98659.38;;;2.25;60.07
39051;BME280;24805;55.852;37.644;2023-03-31T02:38:47;98664.03;;;2.31;59.76
39051;BME280;24805;55.852;37.644;2023-03-31T02:43:51;98681.97;;;2.26;60.25
39051;BME280;24805;55.852;37.644;2023-03-31T02:48:57;98677.69;;;2.25;59.88
39051;BME280;24805;55.852;37.644;2023-03-31T03:10:49;98683.31;;;2.03;61.02
39051;BME280;24805;55.852;37.644;2023-03-31T03:15:33;98674.06;;;2.08;61.16
39051;BME280;24805;55.852;37.644;2023-03-31T03:20:36;98668.97;;;2.07;60.95
39051;BME280;24805;55.852;37.644;2023-03-31T03:25:40;98674.59;;;2.12;60.65
39051;BME280;24805;55.852;37.644;2023-03-31T03:30:42;98669.72;;;2.27;60.44
39051;BME280;24805;55.852;37.644;2023-03-31T03:35:44;98662.63;;;2.37;60.63
39051;BME280;24805;55.852;37.644;2023-03-31T03:40:51;98654.03;;;2.45;60.09
39051;BME280;24805;55.852;37.644;2023-03-31T03:45:54;98641.25;;;2.41;60.29
39051;BME280;24805;55.852;37.644;2023-03-31T03:50:58;98650.16;;;2.49;60.34
39051;BME280;24805;55.852;37.644;2023-03-31T03:56:00;98629.22;;;2.49;59.93
39051;BME280;24805;55.852;37.644;2023-03-31T04:01:03;98588.28;;;2.48;59.59
39051;BME280;24805;55.852;37.644;2023-03-31T04:06:05;98612.75;;;2.38;59.86
39051;BME280;24805;55.852;37.644;2023-03-31T04:11:16;98608.03;;;2.42;60.00
39051;BME280;24805;55.852;37.644;2023-03-31T04:16:20;98613.50;;;2.31;60.34
39051;BME280;24805;55.852;37.644;2023-03-31T04:21:24;98609.22;;;2.30;60.46
39051;BME280;24805;55.852;37.644;2023-03-31T04:26:28;98592.41;;;2.32;60.36
39051;BME280;24805;55.852;37.644;2023-03-31T04:31:44;98595.88;;;2.23;60.62
39051;BME280;24805;55.852;37.644;2023-03-31T04:36:46;98605.09;;;2.27;60.34
39051;BME280;24805;55.852;37.644;2023-03-31T04:41:53;98599.28;;;2.33;60.82
39051;BME280;24805;55.852;37.644;2023-03-31T04:46:55;98606.22;;;2.42;60.55
39051;BME280;24805;55.852;37.644;2023-03-31T04:51:57;98581.41;;;2.64;60.32
39051;BME280;24805;55.852;37.644;2023-03-31T04:56:59;98577.13;;;2.81;59.76
39051;BME280;24805;55.852;37.644;2023-03-31T05:02:01;98583.03;;;2.83;59.56
39051;BME280;24805;55.852;37.644;2023-03-31T05:07:03;98589.63;;;2.87;59.54
39051;BME280;24805;55.852;37.644;2023-03-31T05:12:06;98588.88;;;2.95;59.69
39051;BME280;24805;55.852;37.644;2023-03-31T05:17:08;98591.25;;;3.06;59.35
39051;BME280;24805;55.852;37.644;2023-03-31T05:22:10;98592.34;;;3.21;59.48
39051;BME280;24805;55.852;37.644;2023-03-31T05:27:12;98591.53;;;3.46;58.99
39051;BME280;24805;55.852;37.644;2023-03-31T05:32:14;98593.09;;;3.65;58.62
39051;BME280;24805;55.852;37.644;2023-03-31T05:37:19;98595.25;;;3.70;58.15
39051;BME280;24805;55.852;37.644;2023-03-31T05:42:22;98582.97;;;3.70;58.46
39051;BME280;24805;55.852;37.644;2023-03-31T05:47:24;98577.22;;;3.67;58.00
39051;BME280;24805;55.852;37.644;2023-03-31T05:52:26;98591.88;;;3.77;58.05
39051;BME280;24805;55.852;37.644;2023-03-31T05:57:28;98575.97;;;3.79;58.10
39051;BME280;24805;55.852;37.644;2023-03-31T06:02:32;98560.13;;;3.97;58.02
39051;BME280;24805;55.852;37.644;2023-03-31T06:07:34;98546.84;;;3.98;57.50
39051;BME280;24805;55.852;37.644;2023-03-31T06:12:36;98558.78;;;3.93;57.74
39051;BME280;24805;55.852;37.644;2023-03-31T06:17:39;98561.78;;;3.98;58.08
39051;BME280;24805;55.852;37.644;2023-03-31T06:22:41;98549.50;;;4.14;57.41
39051;BME280;24805;55.852;37.644;2023-03-31T06:27:43;98553.47;;;4.19;56.98
39051;BME280;24805;55.852;37.644;2023-03-31T06:32:45;98548.06;;;4.28;56.83
39051;BME280;24805;55.852;37.644;2023-03-31T06:37:47;98569.78;;;4.63;56.32
39051;BME280;24805;55.852;37.644;2023-03-31T06:42:50;98561.91;;;4.79;55.90
39051;BME280;24805;55.852;37.644;2023-03-31T06:47:52;98560.75;;;4.57;55.34
39051;BME280;24805;55.852;37.644;2023-03-31T06:52:54;98550.88;;;4.43;56.18
39051;BME280;24805;55.852;37.644;2023-03-31T06:57:56;98536.91;;;4.42;56.79
39051;BME280;24805;55.852;37.644;2023-03-31T07:02:58;98526.25;;;4.44;56.44
39051;BME280;24805;55.852;37.644;2023-03-31T07:08:02;98543.84;;;4.52;56.29
39051;BME280;24805;55.852;37.644;2023-03-31T07:13:05;98544.50;;;4.54;56.53
39051;BME280;24805;55.852;37.644;2023-03-31T07:18:07;98536.78;;;4.52;56.84
39051;BME280;24805;55.852;37.644;2023-03-31T07:23:10;98539.41;;;4.52;56.44
39051;BME280;24805;55.852;37.644;2023-03-31T07:28:12;98536.94;;;4.67;56.30
39051;BME280;24805;55.852;37.644;2023-03-31T07:33:14;98538.56;;;4.84;55.78
39051;BME280;24805;55.852;37.644;2023-03-31T07:38:16;98531.66;;;5.07;55.65
39051;BME280;24805;55.852;37.644;2023-03-31T07:43:18;98527.19;;;5.24;55.02
39051;BME280;24805;55.852;37.644;2023-03-31T07:48:21;98530.59;;;5.41;54.82
39051;BME280;24805;55.852;37.644;2023-03-31T07:53:23;98534.19;;;5.48;54.53
39051;BME280;24805;55.852;37.644;2023-03-31T07:58:25;98534.75;;;5.35;54.60
39051;BME280;24805;55.852;37.644;2023-03-31T08:03:27;98531.28;;;5.27;54.97
39051;BME280;24805;55.852;37.644;2023-03-31T08:08:34;98527.66;;;5.36;55.05
39051;BME280;24805;55.852;37.644;2023-03-31T08:13:39;98516.16;;;5.29;54.84
39051;BME280;24805;55.852;37.644;2023-03-31T08:18:41;98500.84;;;5.40;54.74
39051;BME280;24805;55.852;37.644;2023-03-31T08:23:43;98494.75;;;5.48;54.35
39051;BME280;24805;55.852;37.644;2023-03-31T08:28:46;98501.16;;;5.45;54.26
39051;BME280;24805;55.852;37.644;2023-03-31T08:33:51;98500.16;;;5.46;54.21
39051;BME280;24805;55.852;37.644;2023-03-31T08:38:54;98481.84;;;5.69;53.83
39051;BME280;24805;55.852;37.644;2023-03-31T08:43:58;98465.31;;;5.83;53.74
39051;BME280;24805;55.852;37.644;2023-03-31T08:49:03;98454.69;;;6.00;53.71
39051;BME280;24805;55.852;37.644;2023-03-31T08:54:14;98446.16;;;6.20;53.05
39051;BME280;24805;55.852;37.644;2023-03-31T08:59:32;98431.75;;;6.54;52.92
39051;BME280;24805;55.852;37.644;2023-03-31T09:15:38;98452.72;;;6.85;51.28
39051;BME280;24805;55.852;37.644;2023-03-31T09:20:47;98451.69;;;6.71;52.40
39051;BME280;24805;55.852;37.644;2023-03-31T09:25:51;98436.59;;;6.65;51.65
39051;BME280;24805;55.852;37.644;2023-03-31T09:30:54;98428.13;;;6.55;51.31
39051;BME280;24805;55.852;37.644;2023-03-31T09:35:58;98418.28;;;6.49;51.42
39051;BME280;24805;55.852;37.644;2023-03-31T09:41:01;98392.81;;;6.41;51.47
39051;BME280;24805;55.852;37.644;2023-03-31T09:46:14;98397.53;;;6.69;51.74
39051;BME280;24805;55.852;37.644;2023-03-31T09:51:24;98383.97;;;6.86;51.35
39051;BME280;24805;55.852;37.644;2023-03-31T09:56:33;98389.00;;;6.96;51.17
39051;BME280;24805;55.852;37.644;2023-03-31T10:01:36;98381.63;;;6.91;50.80
39051;BME280;24805;55.852;37.644;2023-03-31T10:06:41;98376.81;;;7.10;50.76
39051;BME280;24805;55.852;37.644;2023-03-31T10:17:06;98370.00;;;7.15;50.89
39051;BME280;24805;55.852;37.644;2023-03-31T10:27:23;98367.78;;;7.34;49.96
39051;BME280;24805;55.852;37.644;2023-03-31T10:32:30;98370.38;;;7.48;50.15
39051;BME280;24805;55.852;37.644;2023-03-31T10:37:34;98355.66;;;7.39;49.75
39051;BME280;24805;55.852;37.644;2023-03-31T10:42:37;98345.13;;;7.39;50.48
39051;BME280;24805;55.852;37.644;2023-03-31T10:47:40;98328.66;;;7.37;49.82
39051;BME280;24805;55.852;37.644;2023-03-31T10:52:47;98320.84;;;7.29;50.46
39051;BME280;24805;55.852;37.644;2023-03-31T10:58:00;98313.16;;;7.13;51.12
39051;BME280;24805;55.852;37.644;2023-03-31T11:09:35;98292.34;;;6.88;51.30
39051;BME280;24805;55.852;37.644;2023-03-31T11:20:02;98313.34;;;6.97;52.50
39051;BME280;24805;55.852;37.644;2023-03-31T11:41:09;98281.97;;;6.87;53.32
39051;BME280;24805;55.852;37.644;2023-03-31T11:51:25;98282.00;;;6.72;53.43
39051;BME280;24805;55.852;37.644;2023-03-31T11:56:34;98280.38;;;6.71;54.50
39051;BME280;24805;55.852;37.644;2023-03-31T12:02:39;98270.06;;;6.91;54.48
39051;BME280;24805;55.852;37.644;2023-03-31T12:07:33;98258.97;;;6.96;53.78
39051;BME280;24805;55.852;37.644;2023-03-31T12:12:48;98250.56;;;7.07;53.33
39051;BME280;24805;55.852;37.644;2023-03-31T12:17:59;98246.84;;;7.01;53.94
39051;BME280;24805;55.852;37.644;2023-03-31T12:23:07;98239.34;;;6.83;53.35
39051;BME280;24805;55.852;37.644;2023-03-31T12:28:12;98233.03;;;6.63;54.12
39051;BME280;24805;55.852;37.644;2023-03-31T12:33:21;98229.19;;;6.66;54.14
39051;BME280;24805;55.852;37.644;2023-03-31T12:38:29;98229.22;;;6.51;54.35
39051;BME280;24805;55.852;37.644;2023-03-31T12:44:09;98219.03;;;6.63;54.77
39051;BME280;24805;55.852;37.644;2023-03-31T12:49:34;98214.13;;;6.60;54.83
39051;BME280;24805;55.852;37.644;2023-03-31T13:00:23;98214.38;;;6.65;54.49
39051;BME280;24805;55.852;37.644;2023-03-31T13:10:56;98203.91;;;6.35;55.74
39051;BME280;24805;55.852;37.644;2023-03-31T13:16:00;98203.06;;;6.20;55.65
39051;BME280;24805;55.852;37.644;2023-03-31T13:21:04;98204.88;;;6.19;55.94
39051;BME280;24805;55.852;37.644;2023-03-31T13:42:57;98183.72;;;6.28;57.10
39051;BME280;24805;55.852;37.644;2023-03-31T13:49:13;98181.19;;;6.19;57.09
39051;BME280;24805;55.852;37.644;2023-03-31T14:10:32;98163.91;;;5.73;59.68
39051;BME280;24805;55.852;37.644;2023-03-31T14:15:50;98162.09;;;5.73;60.02
39051;BME280;24805;55.852;37.644;2023-03-31T14:41:42;98144.34;;;5.38;61.54
39051;BME280;24805;55.852;37.644;2023-03-31T14:46:45;98140.78;;;5.31;62.15
39051;BME280;24805;55.852;37.644;2023-03-31T14:51:47;98128.50;;;5.23;62.18
39051;BME280;24805;55.852;37.644;2023-03-31T14:56:54;98126.50;;;5.25;62.58
39051;BME280;24805;55.852;37.644;2023-03-31T15:02:01;98142.53;;;5.38;62.39
39051;BME280;24805;55.852;37.644;2023-03-31T15:07:05;98143.34;;;5.39;62.89
39051;BME280;24805;55.852;37.644;2023-03-31T15:12:12;98139.16;;;5.44;63.42
39051;BME280;24805;55.852;37.644;2023-03-31T15:17:24;98140.97;;;5.44;64.27
39051;BME280;24805;55.852;37.644;2023-03-31T15:22:28;98135.25;;;5.40;63.85
39051;BME280;24805;55.852;37.644;2023-03-31T15:27:36;98139.25;;;5.36;64.24
39051;BME280;24805;55.852;37.644;2023-03-31T15:32:40;98139.31;;;5.28;64.27
39051;BME280;24805;55.852;37.644;2023-03-31T15:37:43;98143.09;;;5.26;64.37
39051;BME280;24805;55.852;37.644;2023-03-31T15:42:47;98149.53;;;5.23;63.96
39051;BME280;24805;55.852;37.644;2023-03-31T15:48:21;98146.56;;;5.26;64.50
39051;BME280;24805;55.852;37.644;2023-03-31T15:53:28;98144.44;;;5.22;64.24
39051;BME280;24805;55.852;37.644;2023-03-31T15:58:53;98131.25;;;5.30;64.29
39051;BME280;24805;55.852;37.644;2023-03-31T16:03:56;98137.81;;;5.11;64.94
39051;BME280;24805;55.852;37.644;2023-03-31T16:09:07;98141.63;;;5.23;64.83
39051;BME280;24805;55.852;37.644;2023-03-31T16:19:19;98118.94;;;5.07;64.79
39051;BME280;24805;55.852;37.644;2023-03-31T16:24:31;98122.31;;;5.16;64.96
39051;BME280;24805;55.852;37.644;2023-03-31T16:29:35;98138.09;;;5.16;64.25
39051;BME280;24805;55.852;37.644;2023-03-31T16:34:58;98136.69;;;5.28;63.95
39051;BME280;24805;55.852;37.644;2023-03-31T16:40:01;98138.34;;;5.06;64.00
39051;BME280;24805;55.852;37.644;2023-03-31T16:45:04;98131.59;;;5.04;63.93
39051;BME280;24805;55.852;37.644;2023-03-31T16:50:10;98136.34;;;5.08;63.86
39051;BME280;24805;55.852;37.644;2023-03-31T16:55:12;98139.16;;;5.07;63.98
39051;BME280;24805;55.852;37.644;2023-03-31T17:00:15;98142.59;;;5.07;64.08
39051;BME280;24805;55.852;37.644;2023-03-31T17:05:17;98132.25;;;5.06;64.26
39051;BME280;24805;55.852;37.644;2023-03-31T17:10:21;98125.38;;;5.05;63.77
39051;BME280;24805;55.852;37.644;2023-03-31T17:15:23;98120.00;;;4.98;63.76
39051;BME280;24805;55.852;37.644;2023-03-31T17:20:25;98120.00;;;4.98;64.00
39051;BME280;24805;55.852;37.644;2023-03-31T17:25:28;98128.50;;;5.00;64.10
39051;BME280;24805;55.852;37.644;2023-03-31T17:30:31;98119.94;;;5.06;64.25
39051;BME280;24805;55.852;37.644;2023-03-31T17:35:36;98093.97;;;4.89;64.42
39051;BME280;24805;55.852;37.644;2023-03-31T17:40:39;98122.56;;;5.06;63.82
39051;BME280;24805;55.852;37.644;2023-03-31T17:45:41;98111.47;;;4.96;63.63
39051;BME280;24805;55.852;37.644;2023-03-31T17:50:43;98097.22;;;4.91;63.95
39051;BME280;24805;55.852;37.644;2023-03-31T17:55:46;98102.78;;;4.96;64.28
39051;BME280;24805;55.852;37.644;2023-03-31T18:00:48;98108.84;;;4.96;64.16
39051;BME280;24805;55.852;37.644;2023-03-31T18:05:50;98110.03;;;4.94;63.87
39051;BME280;24805;55.852;37.644;2023-03-31T18:10:53;98107.56;;;4.92;64.28
39051;BME280;24805;55.852;37.644;2023-03-31T18:15:55;98101.16;;;4.95;64.27
39051;BME280;24805;55.852;37.644;2023-03-31T18:21:02;98098.59;;;5.01;64.00
39051;BME280;24805;55.852;37.644;2023-03-31T18:26:09;98094.06;;;4.95;64.14
39051;BME280;24805;55.852;37.644;2023-03-31T18:31:12;98099.69;;;4.92;64.00
39051;BME280;24805;55.852;37.644;2023-03-31T18:36:17;98088.81;;;4.95;63.95
39051;BME280;24805;55.852;37.644;2023-03-31T18:41:20;98094.94;;;4.88;64.03
39051;BME280;24805;55.852;37.644;2023-03-31T18:46:22;98090.03;;;4.84;64.13
39051;BME280;24805;55.852;37.644;2023-03-31T18:51:24;98080.69;;;4.82;64.11
39051;BME280;24805;55.852;37.644;2023-03-31T18:56:27;98083.97;;;4.84;64.48
39051;BME280;24805;55.852;37.644;2023-03-31T19:01:29;98075.44;;;4.82;64.38
39051;BME280;24805;55.852;37.644;2023-03-31T19:06:33;98072.16;;;4.80;64.37
39051;BME280;24805;55.852;37.644;2023-03-31T19:11:36;98065.47;;;4.77;64.40
39051;BME280;24805;55.852;37.644;2023-03-31T19:16:38;98060.06;;;4.79;64.89
39051;BME280;24805;55.852;37.644;2023-03-31T19:21:43;98063.28;;;4.81;64.87
39051;BME280;24805;55.852;37.644;2023-03-31T19:26:45;98057.41;;;4.79;64.63
39051;BME280;24805;55.852;37.644;2023-03-31T19:31:48;98054.78;;;4.79;64.43
39051;BME280;24805;55.852;37.644;2023-03-31T19:36:50;98056.78;;;4.77;64.10
39051;BME280;24805;55.852;37.644;2023-03-31T19:41:52;98057.78;;;4.76;64.71
39051;BME280;24805;55.852;37.644;2023-03-31T19:46:54;98025.56;;;4.59;64.53
39051;BME280;24805;55.852;37.644;2023-03-31T19:51:59;98051.53;;;4.77;64.70
39051;BME280;24805;55.852;37.644;2023-03-31T19:57:01;98041.19;;;4.75;64.45
39051;BME280;24805;55.852;37.644;2023-03-31T20:02:03;98044.63;;;4.76;64.55
39051;BME280;24805;55.852;37.644;2023-03-31T20:07:06;98040.38;;;4.75;64.81
39051;BME280;24805;55.852;37.644;2023-03-31T20:12:08;98031.66;;;4.74;64.50
39051;BME280;24805;55.852;37.644;2023-03-31T20:17:12;98030.13;;;4.80;64.87
39051;BME280;24805;55.852;37.644;2023-03-31T20:22:14;98038.22;;;4.78;64.57
39051;BME280;24805;55.852;37.644;2023-03-31T20:27:16;98034.75;;;4.78;64.13
39051;BME280;24805;55.852;37.644;2023-03-31T20:32:19;98026.72;;;4.79;64.12
39051;BME280;24805;55.852;37.644;2023-03-31T20:37:21;98017.81;;;4.80;64.54
39051;BME280;24805;55.852;37.644;2023-03-31T20:42:23;98023.06;;;4.80;64.04
39051;BME280;24805;55.852;37.644;2023-03-31T20:47:26;98017.81;;;4.80;64.30
39051;BME280;24805;55.852;37.644;2023-03-31T20:52:29;98014.34;;;4.80;64.48
39051;BME280;24805;55.852;37.644;2023-03-31T20:57:31;98012.63;;;4.72;64.52
39051;BME280;24805;55.852;37.644;2023-03-31T21:02:33;98015.78;;;4.68;64.37
39051;BME280;24805;55.852;37.644;2023-03-31T21:07:36;98013.84;;;4.62;64.52
39051;BME280;24805;55.852;37.644;2023-03-31T21:12:38;98006.06;;;4.54;64.81
39051;BME280;24805;55.852;37.644;2023-03-31T21:17:41;98002.31;;;4.48;64.98
39051;BME280;24805;55.852;37.644;2023-03-31T21:22:44;98015.78;;;4.45;65.02
39051;BME280;24805;55.852;37.644;2023-03-31T21:27:46;98014.81;;;4.46;65.29
39051;BME280;24805;55.852;37.644;2023-03-31T21:32:48;98017.44;;;4.46;65.21
39051;BME280;24805;55.852;37.644;2023-03-31T21:37:50;98018.88;;;4.48;65.62
39051;BME280;24805;55.852;37.644;2023-03-31T21:42:52;98018.53;;;4.52;65.47
39051;BME280;24805;55.852;37.644;2023-03-31T21:47:54;98010.16;;;4.56;65.51
39051;BME280;24805;55.852;37.644;2023-03-31T21:52:56;98012.22;;;4.61;65.33
39051;BME280;24805;55.852;37.644;2023-03-31T21:58:00;98014.50;;;4.64;65.01
39051;BME280;24805;55.852;37.644;2023-03-31T22:03:03;97996.47;;;4.61;64.88
39051;BME280;24805;55.852;37.644;2023-03-31T22:08:25;98002.66;;;4.68;65.18
39051;BME280;24805;55.852;37.644;2023-03-31T22:13:28;98003.00;;;4.65;64.87
39051;BME280;24805;55.852;37.644;2023-03-31T22:18:30;98002.34;;;4.63;65.23
39051;BME280;24805;55.852;37.644;2023-03-31T22:23:32;97997.84;;;4.57;64.74
39051;BME280;24805;55.852;37.644;2023-03-31T22:28:35;97989.66;;;4.52;65.20
39051;BME280;24805;55.852;37.644;2023-03-31T22:33:37;97989.34;;;4.46;64.99
39051;BME280;24805;55.852;37.644;2023-03-31T22:38:39;97988.88;;;4.43;65.19
39051;BME280;24805;55.852;37.644;2023-03-31T22:43:42;97987.44;;;4.40;65.36
39051;BME280;24805;55.852;37.644;2023-03-31T22:48:48;97982.19;;;4.40;65.65
39051;BME280;24805;55.852;37.644;2023-03-31T22:53:52;97978.94;;;4.38;65.59
39051;BME280;24805;55.852;37.644;2023-03-31T22:58:55;97980.75;;;4.38;65.76
39051;BME280;24805;55.852;37.644;2023-03-31T23:03:58;97983.00;;;4.41;66.12
39051;BME280;24805;55.852;37.644;2023-03-31T23:09:01;97975.75;;;4.43;66.35
39051;BME280;24805;55.852;37.644;2023-03-31T23:14:04;97972.63;;;4.47;65.83
39051;BME280;24805;55.852;37.644;2023-03-31T23:19:06;97964.56;;;4.49;65.56
39051;BME280;24805;55.852;37.644;2023-03-31T23:24:09;97979.16;;;4.52;65.93
39051;BME280;24805;55.852;37.644;2023-03-31T23:29:12;97975.38;;;4.54;65.79
39051;BME280;24805;55.852;37.644;2023-03-31T23:34:14;97966.50;;;4.55;65.72
39051;BME280;24805;55.852;37.644;2023-03-31T23:39:16;97966.13;;;4.58;65.42
39051;BME280;24805;55.852;37.644;2023-03-31T23:44:19;97967.78;;;4.59;65.68
39051;BME280;24805;55.852;37.644;2023-03-31T23:49:21;97965.16;;;4.59;65.27
39051;BME280;24805;55.852;37.644;2023-03-31T23:54:24;97973.63;;;4.61;65.35
39051;BME280;24805;55.852;37.644;2023-03-31T23:59:26;97962.31;;;4.61;64.72
